createdAt,value
2022-09-20T00:01:42.540Z,102428.69
2022-09-20T00:04:10.439Z,102426.63
2022-09-20T00:06:37.287Z,102426.13
2022-09-20T00:09:05.530Z,102438.19
2022-09-20T00:11:34.886Z,102430.88
2022-09-20T00:14:04.171Z,102418.38
2022-09-20T00:16:34.249Z,102422.31
2022-09-20T00:19:06.844Z,102419.47
2022-09-20T00:21:37.832Z,102415.84
2022-09-20T00:24:06.082Z,102422.84
2022-09-20T00:26:33.032Z,102417.16
2022-09-20T00:29:00.344Z,102420.56
2022-09-20T00:31:27.362Z,102416.94
2022-09-20T00:34:13.946Z,102415.34
2022-09-20T00:36:41.215Z,102417.41
2022-09-20T00:39:10.956Z,102419.47
2022-09-20T00:41:38.161Z,102423.13
2022-09-20T00:44:47.846Z,102422.31
2022-09-20T00:47:24.472Z,102425.16
2022-09-20T00:49:56.553Z,102427.78
2022-09-20T00:52:24.158Z,102419.94
2022-09-20T00:54:51.198Z,102434.06
2022-09-20T00:57:18.143Z,102430.66
2022-09-20T00:59:49.658Z,102433.50
2022-09-20T01:02:29.264Z,102426.94
2022-09-20T01:04:57.798Z,102429.78
2022-09-20T01:07:26.318Z,102427.41
2022-09-20T01:09:53.314Z,102431.84
2022-09-20T01:12:25.995Z,102420.88
2022-09-20T01:14:54.107Z,102417.94
2022-09-20T01:17:24.396Z,102420.25
2022-09-20T01:20:17.601Z,102417.91
2022-09-20T01:23:12.658Z,102417.63
2022-09-20T01:26:05.311Z,102418.69
2022-09-20T01:28:32.816Z,102417.63
2022-09-20T01:31:20.938Z,102409.56
2022-09-20T01:33:54.195Z,102413.78
2022-09-20T01:36:31.849Z,102412.72
2022-09-20T01:39:23.159Z,102417.16
2022-09-20T01:41:59.658Z,102418.72
2022-09-20T01:44:50.819Z,102412.25
2022-09-20T01:47:23.043Z,102415.88
2022-09-20T01:50:02.280Z,102420.31
2022-09-20T01:52:40.777Z,102413.50
2022-09-20T01:55:35.319Z,102422.38
2022-09-20T01:58:41.484Z,102419.22
2022-09-20T02:01:38.913Z,102419.69
2022-09-20T02:04:17.927Z,102414.97
2022-09-20T02:07:00.160Z,102418.59
2022-09-20T02:09:44.888Z,102417.03
2022-09-20T02:12:33.508Z,102412.84
2022-09-20T02:15:29.832Z,102415.44
2022-09-20T02:18:17.961Z,102421.22
2022-09-20T02:21:03.302Z,102409.75
2022-09-20T02:23:45.032Z,102419.97
2022-09-20T02:26:29.804Z,102410.53
2022-09-20T02:29:24.863Z,102414.97
2022-09-20T02:32:19.082Z,102418.59
2022-09-20T02:35:06.883Z,102412.84
2022-09-20T02:37:36.439Z,102410.72
2022-09-20T02:40:25.721Z,102412.78
2022-09-20T02:43:04.176Z,102419.25
2022-09-20T02:46:02.071Z,102413.75
2022-09-20T02:48:42.872Z,102413.19
2022-09-20T02:51:25.533Z,102411.84
2022-09-20T02:54:03.735Z,102417.78
2022-09-20T02:56:58.738Z,102423.75
2022-09-20T02:59:35.512Z,102413.75
2022-09-20T03:02:09.444Z,102416.06
2022-09-20T03:04:53.084Z,102419.16
2022-09-20T03:08:12.454Z,102417.56
2022-09-20T03:10:50.447Z,102416.47
2022-09-20T03:13:35.575Z,102411.75
2022-09-20T03:16:05.058Z,102415.38
2022-09-20T03:18:57.882Z,102418.22
2022-09-20T03:21:44.849Z,102415.84
2022-09-20T03:24:26.032Z,102413.72
2022-09-20T03:27:04.851Z,102419.16
2022-09-20T03:29:48.558Z,102424.09
2022-09-20T03:32:53.225Z,102421.94
2022-09-20T03:35:33.222Z,102412.56
2022-09-20T03:38:35.143Z,102416.72
2022-09-20T03:41:26.665Z,102420.59
2022-09-20T03:43:56.470Z,102417.22
2022-09-20T03:46:28.604Z,102414.06
2022-09-20T03:49:07.073Z,102413.50
2022-09-20T03:51:39.739Z,102413.72
2022-09-20T03:54:31.332Z,102411.34
2022-09-20T03:57:18.286Z,102416.81
2022-09-20T04:00:16.693Z,102417.84
2022-09-20T04:03:01.572Z,102413.91
2022-09-20T04:05:48.859Z,102410.16
2022-09-20T04:08:38.069Z,102422.63
2022-09-20T04:11:20.423Z,102421.31
2022-09-20T04:14:27.955Z,102416.56
2022-09-20T04:17:30.963Z,102432.13
2022-09-20T04:20:15.338Z,102428.97
2022-09-20T04:22:44.872Z,102431.78
2022-09-20T04:25:20.530Z,102424.69
2022-09-20T04:27:53.572Z,102434.34
2022-09-20T04:30:30.443Z,102430.94
2022-09-20T04:33:25.379Z,102429.56
2022-09-20T04:36:28.947Z,102437.06
2022-09-20T04:39:14.853Z,102432.66
2022-09-20T04:42:03.199Z,102442.28
2022-09-20T04:44:53.122Z,102445.13
2022-09-20T04:48:09.138Z,102445.38
2022-09-20T04:51:12.331Z,102444.59
2022-09-20T04:54:08.573Z,102450.59
2022-09-20T04:57:09.284Z,102446.16
2022-09-20T04:59:55.407Z,102452.97
2022-09-20T05:02:50.658Z,102450.91
2022-09-20T05:05:35.924Z,102456.91
2022-09-20T05:08:41.023Z,102460.06
2022-09-20T05:11:47.408Z,102450.44
2022-09-20T05:14:52.594Z,102452.59
2022-09-20T05:17:28.027Z,102455.97
2022-09-20T05:20:02.697Z,102456.19
2022-09-20T05:22:44.136Z,102453.59
2022-09-20T05:25:59.769Z,102459.28
2022-09-20T05:28:32.359Z,102456.91
2022-09-20T05:31:07.078Z,102460.78
2022-09-20T05:34:08.145Z,102465.44
2022-09-20T05:36:55.452Z,102458.63
2022-09-20T05:39:22.255Z,102466.69
2022-09-20T05:42:13.112Z,102468.50
2022-09-20T05:44:48.762Z,102465.09
2022-09-20T05:47:22.109Z,102466.94
2022-09-20T05:49:58.065Z,102470.00
2022-09-20T05:52:55.369Z,102475.44
2022-09-20T05:55:46.022Z,102479.28
2022-09-20T05:58:45.222Z,102472.50
2022-09-20T06:01:41.311Z,102473.31
2022-09-20T06:04:24.123Z,102479.84
2022-09-20T06:07:02.840Z,102478.59
2022-09-20T06:09:41.512Z,102476.88
2022-09-20T06:12:41.276Z,102479.34
2022-09-20T06:15:19.960Z,102487.59
2022-09-20T06:18:27.146Z,102481.44
2022-09-20T06:21:15.639Z,102489.44
2022-09-20T06:23:42.653Z,102491.09
2022-09-20T06:26:19.998Z,102494.38
2022-09-20T06:29:00.673Z,102501.00
2022-09-20T06:31:27.919Z,102507.66
2022-09-20T06:34:15.938Z,102512.47
2022-09-20T06:37:13.236Z,102516.75
2022-09-20T06:40:13.015Z,102513.75
2022-09-20T06:42:39.912Z,102533.69
2022-09-20T06:45:07.192Z,102524.09
2022-09-20T06:47:38.565Z,102526.56
2022-09-20T06:50:06.493Z,102528.22
2022-09-20T06:52:34.715Z,102512.63
2022-09-20T06:55:09.117Z,102520.53
2022-09-20T06:57:40.756Z,102509.13
2022-09-20T07:00:11.535Z,102513.19
2022-09-20T07:02:38.724Z,102494.84
2022-09-20T07:05:07.616Z,102490.03
2022-09-20T07:07:34.728Z,102490.94
2022-09-20T07:10:01.707Z,102497.09
2022-09-20T07:12:31.439Z,102505.59
2022-09-20T07:14:58.266Z,102509.16
2022-09-20T07:17:25.573Z,102507.88
2022-09-20T07:19:52.474Z,102508.16
2022-09-20T07:22:19.413Z,102512.53
2022-09-20T07:24:46.644Z,102508.66
2022-09-20T07:27:13.836Z,102516.25
2022-09-20T07:29:41.291Z,102519.50
2022-09-20T07:32:08.702Z,102513.28
2022-09-20T07:34:35.689Z,102510.09
2022-09-20T07:37:02.779Z,102514.28
2022-09-20T07:39:29.630Z,102527.38
2022-09-20T07:41:56.787Z,102526.88
2022-09-20T07:44:28.002Z,102541.84
2022-09-20T07:46:58.138Z,102535.03
2022-09-20T07:49:26.342Z,102552.88
2022-09-20T07:51:53.979Z,102541.34
2022-09-20T07:54:21.316Z,102550.81
2022-09-20T07:56:48.699Z,102552.13
2022-09-20T07:59:15.684Z,102557.94
2022-09-20T08:01:42.935Z,102564.00
2022-09-20T08:04:10.651Z,102570.06
2022-09-20T08:06:42.924Z,102570.59
2022-09-20T08:09:11.866Z,102571.66
2022-09-20T08:11:40.207Z,102582.63
2022-09-20T08:14:16.145Z,102581.31
2022-09-20T08:16:48.350Z,102585.25
2022-09-20T08:19:21.051Z,102585.00
2022-09-20T08:21:48.574Z,102589.47
2022-09-20T08:24:16.551Z,102588.16
2022-09-20T08:26:43.927Z,102598.13
2022-09-20T08:29:11.758Z,102594.19
2022-09-20T08:31:42.507Z,102596.31
2022-09-20T08:34:12.246Z,102594.22
2022-09-20T08:36:42.169Z,102592.66
2022-09-20T08:42:33.882Z,102596.63
2022-09-20T08:45:34.614Z,102603.81
2022-09-20T08:48:06.419Z,102602.81
2022-09-20T08:50:37.063Z,102595.50
2022-09-20T08:53:05.166Z,102601.78
2022-09-20T08:55:40.160Z,102592.59
2022-09-20T08:58:12.219Z,102600.47
2022-09-20T09:00:47.080Z,102602.03
2022-09-20T09:03:17.244Z,102605.72
2022-09-20T09:05:50.838Z,102600.19
2022-09-20T09:08:21.975Z,102601.44
2022-09-20T09:10:54.312Z,102589.53
2022-09-20T09:13:27.024Z,102590.97
2022-09-20T09:16:11.653Z,102593.63
2022-09-20T09:18:41.909Z,102594.66
2022-09-20T09:21:17.081Z,102597.28
2022-09-20T09:24:01.300Z,102599.94
2022-09-20T09:26:29.645Z,102598.34
2022-09-20T09:29:08.560Z,102602.53
2022-09-20T09:31:35.790Z,102599.16
2022-09-20T09:34:03.065Z,102596.78
2022-09-20T09:36:29.973Z,102601.00
2022-09-20T09:39:16.768Z,102598.34
2022-09-20T09:41:44.603Z,102594.66
2022-09-20T09:44:21.976Z,102595.94
2022-09-20T09:46:50.564Z,102604.53
2022-09-20T09:49:23.036Z,102594.97
2022-09-20T09:51:56.132Z,102609.16
2022-09-20T09:54:26.154Z,102599.34
2022-09-20T09:57:12.049Z,102605.44
2022-09-20T09:59:40.344Z,102609.69
2022-09-20T10:02:19.563Z,102611.84
2022-09-20T10:05:03.328Z,102605.34
2022-09-20T10:07:55.207Z,102617.16
2022-09-20T10:11:00.993Z,102610.06
2022-09-20T10:14:03.771Z,102622.69
2022-09-20T10:16:55.572Z,102611.59
2022-09-20T10:19:41.379Z,102611.75
2022-09-20T10:22:34.236Z,102605.91
2022-09-20T10:25:19.683Z,102614.56
2022-09-20T10:28:08.980Z,102604.59
2022-09-20T10:31:06.716Z,102611.63
2022-09-20T10:33:44.594Z,102609.16
2022-09-20T10:36:16.514Z,102608.28
2022-09-20T10:39:09.101Z,102604.81
2022-09-20T10:42:05.047Z,102602.31
2022-09-20T10:44:38.271Z,102596.06
2022-09-20T10:47:15.445Z,102603.31
2022-09-20T10:49:44.336Z,102595.75
2022-09-20T10:52:40.388Z,102602.28
2022-09-20T10:55:52.181Z,102597.09
2022-09-20T10:58:49.259Z,102603.59
2022-09-20T11:01:46.506Z,102599.22
2022-09-20T11:04:25.275Z,102592.47
2022-09-20T11:07:39.971Z,102598.13
2022-09-20T11:10:17.333Z,102602.25
2022-09-20T11:12:55.400Z,102605.59
2022-09-20T11:15:31.488Z,102597.97
2022-09-20T11:18:41.080Z,102600.88
2022-09-20T11:21:23.556Z,102597.47
2022-09-20T11:24:02.116Z,102600.97
2022-09-20T11:26:53.385Z,102605.25
2022-09-20T11:29:42.391Z,102602.75
2022-09-20T11:32:16.279Z,102601.69
2022-09-20T11:35:12.042Z,102603.13
2022-09-20T11:37:43.799Z,102600.09
2022-09-20T11:40:22.241Z,102608.44
2022-09-20T11:42:52.915Z,102610.09
2022-09-20T11:45:24.032Z,102607.38
2022-09-20T11:48:00.210Z,102612.03
2022-09-20T11:50:51.256Z,102609.34
2022-09-20T11:53:24.552Z,102601.31
2022-09-20T11:55:59.154Z,102611.59
2022-09-20T11:58:27.657Z,102618.28
2022-09-20T12:00:57.578Z,102607.31
2022-09-20T12:03:28.787Z,102615.94
2022-09-20T12:05:58.963Z,102613.88
2022-09-20T12:08:34.023Z,102609.66
2022-09-20T12:11:05.348Z,102609.97
2022-09-20T12:13:36.576Z,102619.66
2022-09-20T12:16:12.991Z,102605.81
2022-09-20T12:18:55.041Z,102618.28
2022-09-20T12:21:22.822Z,102614.13
2022-09-20T12:23:52.881Z,102610.16
2022-09-20T12:26:22.712Z,102618.94
2022-09-20T12:28:50.818Z,102622.34
2022-09-20T12:31:29.459Z,102619.81
2022-09-20T12:34:11.907Z,102611.69
2022-09-20T12:36:44.642Z,102612.97
2022-09-20T12:39:11.724Z,102601.91
2022-09-20T12:41:50.311Z,102608.91
2022-09-20T12:44:30.556Z,102605.50
2022-09-20T12:47:12.718Z,102595.41
2022-09-20T12:50:03.931Z,102608.03
2022-09-20T12:52:57.406Z,102614.69
2022-09-20T12:55:38.627Z,102613.94
2022-09-20T12:58:17.619Z,102610.44
2022-09-20T13:00:59.461Z,102612.31
2022-09-20T13:03:45.543Z,102609.19
2022-09-20T13:06:23.038Z,102605.66
2022-09-20T13:09:02.129Z,102607.03
2022-09-20T13:11:47.536Z,102612.94
2022-09-20T13:14:24.924Z,102611.41
2022-09-20T13:16:56.338Z,102606.13
2022-09-20T13:19:42.118Z,102609.59
2022-09-20T13:22:20.387Z,102599.31
2022-09-20T13:24:50.079Z,102612.94
2022-09-20T13:27:32.880Z,102609.97
2022-09-20T13:30:19.125Z,102611.22
2022-09-20T13:32:47.024Z,102615.66
2022-09-20T13:35:24.694Z,102616.41
2022-09-20T13:37:55.879Z,102617.06
2022-09-20T13:40:33.801Z,102612.66
2022-09-20T13:43:22.481Z,102609.34
2022-09-20T13:45:56.400Z,102604.19
2022-09-20T13:48:28.985Z,102614.13
2022-09-20T13:50:57.098Z,102610.78
2022-09-20T13:53:42.376Z,102607.88
2022-09-20T13:56:21.668Z,102613.63
2022-09-20T13:58:50.661Z,102605.88
2022-09-20T14:01:35.972Z,102610.78
2022-09-20T14:04:02.978Z,102610.91
2022-09-20T14:06:29.982Z,102613.59
2022-09-20T14:08:58.985Z,102609.38
2022-09-20T14:11:34.217Z,102613.69
2022-09-20T14:14:05.595Z,102612.75
2022-09-20T14:16:38.404Z,102604.84
2022-09-20T14:19:08.398Z,102612.78
2022-09-20T14:21:37.399Z,102617.53
2022-09-20T14:24:08.544Z,102620.28
2022-09-20T14:26:37.613Z,102607.16
2022-09-20T14:29:43.297Z,102605.25
2022-09-20T14:32:19.267Z,102602.81
2022-09-20T14:34:52.455Z,102599.34
2022-09-20T14:37:36.644Z,102600.75
2022-09-20T14:40:17.002Z,102607.66
2022-09-20T14:42:47.232Z,102602.31
2022-09-20T14:45:31.477Z,102605.78
2022-09-20T14:48:09.571Z,102601.91
2022-09-20T14:50:46.531Z,102600.47
2022-09-20T14:53:19.353Z,102605.34
2022-09-20T14:56:13.112Z,102599.66
2022-09-20T14:59:08.239Z,102598.19
2022-09-20T15:01:37.730Z,102592.44
2022-09-20T15:04:10.040Z,102597.63
2022-09-20T15:06:40.298Z,102600.06
2022-09-20T15:09:09.792Z,102594.22
2022-09-20T15:11:36.893Z,102603.41
2022-09-20T15:14:04.164Z,102598.25
2022-09-20T15:16:31.362Z,102600.88
2022-09-20T15:18:58.353Z,102597.84
2022-09-20T15:21:25.540Z,102600.75
2022-09-20T15:23:52.545Z,102600.09
2022-09-20T15:26:21.535Z,102597.31
2022-09-20T15:28:48.913Z,102602.72
2022-09-20T15:31:17.415Z,102597.03
2022-09-20T15:33:44.588Z,102596.16
2022-09-20T15:36:12.085Z,102604.16
2022-09-20T15:38:39.406Z,102604.00
2022-09-20T15:41:06.547Z,102601.72
2022-09-20T15:43:33.629Z,102593.38
2022-09-20T15:46:17.598Z,102602.38
2022-09-20T15:48:44.376Z,102600.38
2022-09-20T15:51:12.318Z,102593.31
2022-09-20T15:53:45.296Z,102593.63
2022-09-20T15:56:23.198Z,102597.34
2022-09-20T15:58:53.357Z,102594.25
2022-09-20T16:01:20.277Z,102589.53
2022-09-20T16:03:47.293Z,102599.56
2022-09-20T16:06:14.662Z,102596.66
2022-09-20T16:08:43.348Z,102607.72
2022-09-20T16:11:13.925Z,102600.13
2022-09-20T16:13:41.317Z,102607.75
2022-09-20T16:16:13.304Z,102613.81
2022-09-20T16:18:58.833Z,102607.25
2022-09-20T16:21:25.675Z,102610.94
2022-09-20T16:23:54.996Z,102617.22
2022-09-20T16:26:24.013Z,102612.53
2022-09-20T16:28:51.964Z,102620.13
2022-09-20T16:31:34.802Z,102619.06
2022-09-20T16:34:09.859Z,102619.88
2022-09-20T16:36:36.701Z,102617.00
2022-09-20T16:39:03.827Z,102619.66
2022-09-20T16:41:32.530Z,102625.44
2022-09-20T16:43:59.678Z,102627.03
2022-09-20T16:46:27.700Z,102628.06
2022-09-20T16:48:56.944Z,102629.63
2022-09-20T16:51:26.207Z,102633.84
2022-09-20T16:53:55.092Z,102636.47
2022-09-20T16:56:27.102Z,102638.56
2022-09-20T16:58:54.644Z,102639.59
2022-09-20T17:01:22.074Z,102639.88
2022-09-20T17:03:49.564Z,102638.81
2022-09-20T17:06:17.246Z,102637.00
2022-09-20T17:08:45.169Z,102641.44
2022-09-20T17:11:15.747Z,102647.19
2022-09-20T17:13:44.533Z,102647.44
2022-09-20T17:16:14.593Z,102648.44
2022-09-20T17:18:43.398Z,102648.72
2022-09-20T17:21:17.469Z,102647.91
2022-09-20T17:23:50.826Z,102655.75
2022-09-20T17:26:23.233Z,102653.63
2022-09-20T17:28:51.879Z,102648.38
2022-09-20T17:31:23.564Z,102655.97
2022-09-20T17:33:51.904Z,102656.75
2022-09-20T17:36:21.563Z,102655.38
2022-09-20T17:38:53.270Z,102669.53
2022-09-20T17:41:20.832Z,102660.28
2022-09-20T17:43:49.014Z,102664.44
2022-09-20T17:46:23.060Z,102671.22
2022-09-20T17:48:55.862Z,102668.53
2022-09-20T17:51:29.112Z,102665.09
2022-09-20T17:53:56.408Z,102669.50
2022-09-20T17:56:24.787Z,102668.72
2022-09-20T17:58:51.683Z,102671.53
2022-09-20T18:01:22.882Z,102677.28
2022-09-20T18:03:50.195Z,102681.44
2022-09-20T18:06:50.379Z,102674.59
2022-09-20T18:09:19.946Z,102683.97
2022-09-20T18:11:50.144Z,102689.22
2022-09-20T18:14:19.479Z,102691.31
2022-09-20T18:16:47.345Z,102689.72
2022-09-20T18:19:16.290Z,102684.16
2022-09-20T18:21:43.755Z,102690.94
2022-09-20T18:24:12.274Z,102690.88
2022-09-20T18:26:39.851Z,102694.53
2022-09-20T18:29:11.293Z,102696.13
2022-09-20T18:31:39.988Z,102696.59
2022-09-20T18:34:11.352Z,102698.69
2022-09-20T18:36:39.672Z,102702.34
2022-09-20T18:39:07.781Z,102702.59
2022-09-20T18:41:37.290Z,102709.38
2022-09-20T18:44:07.775Z,102709.84
2022-09-20T18:46:38.173Z,102706.69
2022-09-20T18:49:08.163Z,102705.91
2022-09-20T18:51:39.385Z,102717.66
2022-09-20T18:54:10.275Z,102711.88
2022-09-20T18:56:42.272Z,102712.38
2022-09-20T18:59:15.446Z,102716.28
2022-09-20T19:01:54.650Z,102713.88
2022-09-20T19:04:55.358Z,102719.41
2022-09-20T19:07:24.727Z,102722.72
2022-09-20T19:10:06.534Z,102730.28
2022-09-20T19:12:48.630Z,102724.75
2022-09-20T19:15:29.394Z,102722.06
2022-09-20T19:18:02.234Z,102736.22
2022-09-20T19:20:56.773Z,102728.81
2022-09-20T19:23:39.350Z,102738.75
2022-09-20T19:26:14.026Z,102730.91
2022-09-20T19:28:44.348Z,102737.66
2022-09-20T19:31:31.557Z,102742.09
2022-09-20T19:34:01.219Z,102746.53
2022-09-20T19:36:56.335Z,102743.91
2022-09-20T19:39:27.289Z,102745.75
2022-09-20T19:42:03.791Z,102758.59
2022-09-20T19:44:48.547Z,102749.72
2022-09-20T19:47:34.610Z,102754.13
2022-09-20T19:50:37.916Z,102751.28
2022-09-20T19:53:05.255Z,102763.34
2022-09-20T19:55:36.040Z,102763.91
2022-09-20T19:58:04.074Z,102758.13
2022-09-20T20:00:31.841Z,102764.94
2022-09-20T20:02:59.233Z,102770.16
2022-09-20T20:05:27.918Z,102771.75
2022-09-20T20:08:35.471Z,102770.94
2022-09-20T20:11:17.461Z,102775.38
2022-09-20T20:14:04.944Z,102772.22
2022-09-20T20:16:47.732Z,102779.53
2022-09-20T20:19:33.131Z,102783.97
2022-09-20T20:22:09.820Z,102787.38
2022-09-20T20:24:53.824Z,102788.41
2022-09-20T20:27:21.292Z,102788.66
2022-09-20T20:29:49.436Z,102780.00
2022-09-20T20:32:16.754Z,102788.13
2022-09-20T20:34:43.646Z,102795.97
2022-09-20T20:37:10.551Z,102780.50
2022-09-20T20:39:37.374Z,102785.19
2022-09-20T20:42:06.315Z,102787.00
2022-09-20T20:44:37.433Z,102788.59
2022-09-20T20:47:06.274Z,102796.19
2022-09-20T20:49:33.433Z,102793.81
2022-09-20T20:52:04.921Z,102795.66
2022-09-20T20:54:32.739Z,102803.50
2022-09-20T20:56:59.817Z,102800.09
2022-09-20T20:59:26.985Z,102800.88
2022-09-20T21:01:54.066Z,102802.72
2022-09-20T21:04:21.829Z,102812.38
2022-09-20T21:06:50.535Z,102814.19
2022-09-20T21:09:17.433Z,102811.03
2022-09-20T21:11:44.617Z,102808.41
2022-09-20T21:14:13.033Z,102819.66
2022-09-20T21:16:45.747Z,102817.31
2022-09-20T21:19:15.810Z,102824.34
2022-09-20T21:21:45.732Z,102825.41
2022-09-20T21:24:17.420Z,102820.94
2022-09-20T21:26:45.842Z,102824.59
2022-09-20T21:29:15.309Z,102830.63
2022-09-20T21:31:44.550Z,102823.78
2022-09-20T21:34:13.294Z,102824.84
2022-09-20T21:36:44.161Z,102823.25
2022-09-20T21:39:11.490Z,102831.91
2022-09-20T21:41:39.521Z,102833.47
2022-09-20T21:44:08.057Z,102829.53
2022-09-20T21:46:40.426Z,102828.97
2022-09-20T21:49:10.156Z,102828.97
2022-09-20T21:51:38.353Z,102838.34
2022-09-20T21:54:05.793Z,102830.47
2022-09-20T21:56:35.704Z,102834.13
2022-09-20T21:59:04.038Z,102836.72
2022-09-20T22:01:36.847Z,102832.53
2022-09-20T22:04:11.939Z,102836.19
2022-09-20T22:06:41.404Z,102833.00
2022-09-20T22:09:14.107Z,102831.44
2022-09-20T22:11:46.401Z,102830.88
2022-09-20T22:14:14.863Z,102832.94
2022-09-20T22:16:43.513Z,102838.19
2022-09-20T22:19:12.397Z,102831.84
2022-09-20T22:21:41.860Z,102832.31
2022-09-20T22:24:10.701Z,102829.69
2022-09-20T22:26:43.088Z,102829.69
2022-09-20T22:29:10.373Z,102832.25
2022-09-20T22:31:44.852Z,102838.97
2022-09-20T22:34:15.119Z,102843.38
2022-09-20T22:36:42.376Z,102831.91
2022-09-20T22:39:11.520Z,102832.69
2022-09-20T22:41:39.647Z,102826.13
2022-09-20T22:44:07.002Z,102828.41
2022-09-20T22:46:35.171Z,102829.44
2022-09-20T22:49:05.758Z,102827.88
2022-09-20T22:51:33.711Z,102824.47
2022-09-20T22:54:09.996Z,102828.88
2022-09-20T22:56:38.729Z,102828.59
2022-09-20T22:59:07.837Z,102836.66
2022-09-20T23:01:43.000Z,102836.81
2022-09-20T23:04:15.743Z,102833.88
2022-09-20T23:06:45.096Z,102836.16
2022-09-20T23:09:13.678Z,102832.66
2022-09-20T23:11:42.853Z,102830.53
2022-09-20T23:14:12.467Z,102832.59
2022-09-20T23:16:40.268Z,102837.25
2022-09-20T23:19:08.481Z,102839.31
2022-09-20T23:21:38.385Z,102846.03
2022-09-20T23:24:07.954Z,102842.50
2022-09-20T23:26:36.634Z,102836.16
2022-09-20T23:29:06.511Z,102848.09
2022-09-20T23:31:36.665Z,102835.97
2022-09-20T23:34:06.316Z,102837.91
2022-09-20T23:36:35.485Z,102848.03
2022-09-20T23:39:02.529Z,102845.31
2022-09-20T23:41:29.957Z,102842.59
2022-09-20T23:43:57.390Z,102841.47
2022-09-20T23:46:26.137Z,102844.56
2022-09-20T23:48:53.334Z,102850.47
2022-09-20T23:51:25.405Z,102849.81
2022-09-20T23:53:53.435Z,102847.84
2022-09-20T23:56:21.596Z,102844.38
2022-09-20T23:58:49.054Z,102852.09
